createdAt,value
2022-11-28T00:01:29.916Z,3.07
2022-11-28T00:06:45.756Z,2.30
2022-11-28T00:11:58.987Z,1.80
2022-11-28T00:17:10.144Z,2.30
2022-11-28T00:22:24.766Z,2.73
2022-11-28T00:27:36.759Z,2.40
2022-11-28T00:32:48.612Z,3.60
2022-11-28T00:38:05.811Z,4.13
2022-11-28T00:43:18.576Z,5.43
2022-11-28T00:48:32.156Z,5.87
2022-11-28T00:53:50.245Z,4.07
2022-11-28T00:59:03.935Z,4.30
2022-11-28T01:04:18.273Z,3.47
2022-11-28T01:09:31.327Z,2.57
2022-11-28T01:14:43.734Z,2.60
2022-11-28T01:19:56.257Z,3.57
2022-11-28T01:25:12.461Z,5.00
2022-11-28T01:30:25.371Z,5.07
2022-11-28T01:35:32.852Z,7.43
2022-11-28T01:40:49.622Z,6.17
2022-11-28T01:45:57.256Z,7.13
2022-11-28T01:51:06.605Z,5.00
2022-11-28T01:56:19.171Z,8.37
2022-11-28T02:01:26.472Z,5.47
2022-11-28T02:06:33.341Z,6.67
2022-11-28T02:12:07.022Z,5.40
2022-11-28T02:17:19.676Z,4.70
2022-11-28T02:22:28.617Z,3.47
2022-11-28T02:27:55.713Z,2.90
2022-11-28T02:33:15.943Z,2.70
2022-11-28T02:38:27.304Z,2.17
2022-11-28T02:43:37.746Z,3.37
2022-11-28T02:53:55.361Z,2.25
2022-11-28T02:59:01.694Z,2.40
2022-11-28T03:04:20.555Z,3.77
2022-11-28T03:09:42.489Z,2.40
2022-11-28T03:14:55.290Z,2.60
2022-11-28T03:20:33.805Z,2.13
2022-11-28T03:25:48.859Z,2.47
2022-11-28T03:31:06.944Z,3.10
2022-11-28T03:36:20.260Z,2.37
2022-11-28T03:41:31.539Z,2.50
2022-11-28T03:46:42.543Z,2.53
2022-11-28T03:51:55.749Z,2.23
2022-11-28T03:57:07.079Z,2.27
2022-11-28T04:02:23.427Z,2.90
2022-11-28T04:07:40.953Z,2.20
2022-11-28T04:12:57.206Z,2.67
2022-11-28T04:18:08.739Z,2.47
2022-11-28T04:23:25.725Z,1.90
2022-11-28T04:28:42.673Z,2.37
2022-11-28T04:33:54.142Z,2.60
2022-11-28T04:39:04.500Z,2.80
2022-11-28T04:44:16.283Z,2.58
2022-11-28T04:49:22.668Z,2.23
2022-11-28T04:54:36.008Z,2.70
2022-11-28T04:59:43.229Z,3.57
2022-11-28T05:04:58.665Z,3.53
2022-11-28T05:10:18.255Z,3.47
2022-11-28T05:15:32.697Z,3.50
2022-11-28T05:20:45.957Z,1.90
2022-11-28T05:25:55.658Z,3.53
2022-11-28T05:31:03.135Z,2.53
2022-11-28T05:36:13.429Z,2.53
2022-11-28T05:41:27.579Z,2.35
2022-11-28T05:46:34.274Z,3.40
2022-11-28T05:51:40.759Z,3.50
2022-11-28T05:56:50.592Z,3.80
2022-11-28T06:01:57.311Z,3.53
2022-11-28T06:07:04.869Z,3.50
2022-11-28T06:12:22.184Z,2.77
2022-11-28T06:17:36.164Z,2.57
2022-11-28T06:22:49.215Z,3.03
2022-11-28T06:28:05.016Z,2.40
2022-11-28T06:33:17.989Z,2.97
2022-11-28T06:38:30.820Z,2.97
2022-11-28T06:43:46.551Z,3.23
2022-11-28T06:49:00.809Z,3.13
2022-11-28T06:54:13.788Z,3.07
2022-11-28T06:59:31.247Z,2.63
2022-11-28T07:04:45.785Z,2.63
2022-11-28T07:10:00.621Z,2.30
2022-11-28T07:15:21.107Z,3.20
2022-11-28T07:20:35.314Z,2.50
2022-11-28T07:25:49.051Z,3.40
2022-11-28T07:31:13.685Z,2.87
2022-11-28T07:36:28.630Z,2.80
2022-11-28T07:41:42.098Z,3.03
2022-11-28T07:46:58.564Z,2.50
2022-11-28T07:52:11.439Z,3.00
2022-11-28T07:57:25.005Z,3.00
2022-11-28T08:02:41.688Z,2.87
2022-11-28T08:07:56.927Z,2.47
2022-11-28T08:13:10.111Z,3.10
2022-11-28T08:18:28.009Z,2.97
2022-11-28T08:23:43.495Z,4.13
2022-11-28T08:28:59.150Z,2.83
2022-11-28T08:34:15.909Z,3.87
2022-11-28T08:39:29.454Z,2.87
2022-11-28T08:44:43.614Z,2.93
2022-11-28T08:49:59.799Z,3.17
2022-11-28T08:55:12.753Z,3.40
2022-11-28T09:00:26.107Z,2.53
2022-11-28T09:05:42.115Z,3.70
2022-11-28T09:10:56.169Z,2.57
2022-11-28T09:16:10.582Z,3.13
2022-11-28T09:21:27.382Z,3.30
2022-11-28T09:26:41.782Z,3.10
2022-11-28T09:31:55.816Z,2.80
2022-11-28T09:37:12.872Z,2.77
2022-11-28T09:42:33.131Z,2.57
2022-11-28T09:47:48.942Z,4.25
2022-11-28T09:53:10.550Z,2.93
2022-11-28T09:58:27.161Z,3.17
2022-11-28T10:03:46.691Z,2.97
2022-11-28T10:09:32.208Z,3.30
2022-11-28T10:15:11.223Z,3.37
2022-11-28T10:20:30.743Z,3.22
2022-11-28T10:25:52.372Z,3.40
2022-11-28T10:31:12.808Z,5.57
2022-11-28T10:36:32.451Z,2.92
2022-11-28T10:42:14.061Z,2.30
2022-11-28T10:47:26.101Z,3.13
2022-11-28T10:52:38.267Z,2.90
2022-11-28T10:57:53.410Z,2.50
2022-11-28T11:03:02.485Z,2.43
2022-11-28T11:08:28.143Z,2.87
2022-11-28T11:13:39.553Z,3.87
2022-11-28T11:18:57.640Z,2.77
2022-11-28T11:24:19.161Z,3.17
2022-11-28T11:29:37.018Z,2.83
2022-11-28T11:34:49.842Z,3.13
2022-11-28T11:39:58.456Z,2.73
2022-11-28T11:45:37.338Z,3.40
2022-11-28T11:50:58.182Z,3.30
2022-11-28T11:56:06.945Z,3.07
2022-11-28T12:01:19.191Z,2.37
2022-11-28T12:06:29.599Z,2.93
2022-11-28T12:11:43.957Z,2.60
2022-11-28T12:17:00.390Z,2.80
2022-11-28T12:22:13.913Z,2.90
2022-11-28T12:27:33.867Z,2.80
2022-11-28T12:32:50.698Z,1.65
2022-11-28T12:38:10.837Z,2.63
2022-11-28T12:43:31.395Z,2.72
2022-11-28T12:48:53.439Z,2.40
2022-11-28T12:54:26.857Z,2.83
2022-11-28T12:59:39.547Z,2.33
2022-11-28T13:05:18.983Z,2.53
2022-11-28T13:10:37.501Z,2.72
2022-11-28T13:16:01.439Z,3.17
2022-11-28T13:21:27.825Z,3.00
2022-11-28T13:26:49.423Z,2.53
2022-11-28T13:32:09.982Z,2.50
2022-11-28T13:43:16.051Z,2.43
2022-11-28T13:49:14.271Z,2.17
2022-11-28T13:54:55.140Z,2.65
2022-11-28T14:00:17.135Z,2.17
2022-11-28T14:05:46.377Z,3.20
2022-11-28T14:11:31.322Z,2.90
2022-11-28T14:16:56.471Z,2.70
2022-11-28T14:22:20.812Z,4.37
2022-11-28T14:27:41.519Z,3.70
2022-11-28T14:32:56.849Z,2.70
2022-11-28T14:38:16.738Z,2.83
2022-11-28T14:43:42.673Z,3.07
2022-11-28T14:49:30.343Z,2.60
2022-11-28T14:54:47.206Z,2.73
2022-11-28T15:00:08.649Z,2.53
2022-11-28T15:05:45.102Z,2.27
2022-11-28T15:11:04.504Z,1.83
2022-11-28T15:16:24.375Z,2.67
2022-11-28T15:21:39.418Z,2.03
2022-11-28T15:26:57.373Z,2.60
2022-11-28T15:32:10.842Z,2.37
2022-11-28T15:37:22.417Z,1.80
2022-11-28T15:42:33.097Z,2.00
2022-11-28T15:47:47.345Z,1.65
2022-11-28T15:53:02.897Z,2.33
2022-11-28T15:58:26.706Z,2.00
2022-11-28T16:03:40.660Z,1.80
2022-11-28T16:08:55.297Z,2.13
2022-11-28T16:14:05.471Z,1.90
2022-11-28T16:19:27.887Z,2.53
2022-11-28T16:24:39.255Z,2.73
2022-11-28T16:29:52.228Z,2.97
2022-11-28T16:35:04.962Z,2.53
2022-11-28T16:40:20.392Z,2.37
2022-11-28T16:45:31.691Z,2.30
2022-11-28T16:50:42.999Z,1.77
2022-11-28T16:55:51.382Z,2.23
2022-11-28T17:01:07.656Z,2.23
2022-11-28T17:06:30.069Z,2.03
2022-11-28T17:11:40.521Z,2.53
2022-11-28T17:22:01.231Z,2.03
2022-11-28T17:27:12.117Z,1.60
2022-11-28T17:32:20.219Z,1.83
2022-11-28T17:37:31.410Z,1.53
2022-11-28T17:42:39.968Z,1.57
2022-11-28T17:47:48.457Z,1.63
2022-11-28T17:52:59.803Z,1.97
2022-11-28T17:58:08.397Z,2.90
2022-11-28T18:03:17.531Z,2.60
2022-11-28T18:08:28.817Z,2.57
2022-11-28T18:13:37.559Z,2.67
2022-11-28T18:18:46.942Z,2.10
2022-11-28T18:23:58.215Z,2.67
2022-11-28T18:29:06.555Z,2.33
2022-11-28T18:34:16.699Z,2.97
2022-11-28T18:49:34.329Z,1.70
2022-11-28T18:54:50.979Z,1.92
2022-11-28T19:00:05.504Z,2.27
2022-11-28T19:05:23.686Z,2.03
2022-11-28T19:10:39.015Z,2.10
2022-11-28T19:15:54.454Z,1.60
2022-11-28T19:21:14.789Z,2.37
2022-11-28T19:31:45.551Z,2.03
2022-11-28T19:37:11.034Z,2.17
2022-11-28T19:42:25.145Z,1.73
2022-11-28T19:47:51.959Z,2.33
2022-11-28T19:53:10.156Z,2.40
2022-11-28T19:58:24.885Z,1.73
2022-11-28T20:03:40.126Z,1.87
2022-11-28T20:09:00.581Z,2.70
2022-11-28T20:14:22.125Z,3.57
2022-11-28T20:19:38.755Z,2.07
2022-11-28T20:24:56.993Z,2.07
2022-11-28T20:30:12.052Z,1.87
2022-11-28T20:35:27.205Z,2.27
2022-11-28T20:40:45.356Z,2.10
2022-11-28T20:46:00.015Z,2.40
2022-11-28T20:51:17.537Z,1.90
2022-11-28T20:57:05.178Z,1.93
2022-11-28T21:02:14.071Z,1.83
2022-11-28T21:07:29.817Z,1.83
2022-11-28T21:12:46.732Z,2.37
2022-11-28T21:18:00.813Z,1.50
2022-11-28T21:23:15.545Z,2.23
2022-11-28T21:28:33.345Z,1.90
2022-11-28T21:33:47.182Z,2.30
2022-11-28T21:39:03.481Z,1.97
2022-11-28T21:44:20.948Z,2.00
2022-11-28T21:49:35.759Z,2.33
2022-11-28T21:54:49.940Z,1.80
2022-11-28T22:00:13.634Z,1.97
2022-11-28T22:05:41.188Z,1.80
2022-11-28T22:10:56.695Z,1.80
2022-11-28T22:16:17.645Z,1.90
2022-11-28T22:27:08.952Z,2.40
2022-11-28T22:32:26.711Z,2.20
2022-11-28T22:37:40.895Z,2.17
2022-11-28T22:42:56.880Z,1.93
2022-11-28T22:48:15.472Z,1.90
2022-11-28T22:53:30.324Z,1.90
2022-11-28T22:58:46.527Z,2.43
2022-11-28T23:04:06.736Z,2.20
2022-11-28T23:09:23.165Z,1.47
2022-11-28T23:14:38.858Z,2.00
2022-11-28T23:19:56.499Z,1.60
2022-11-28T23:25:12.302Z,2.63
2022-11-28T23:30:27.271Z,2.30
2022-11-28T23:35:44.966Z,2.33
2022-11-28T23:41:04.644Z,1.80
2022-11-28T23:46:20.622Z,2.00
2022-11-28T23:51:38.928Z,1.70
2022-11-28T23:56:52.830Z,2.27
